Time;durP1;ratioP1;P1;durP2;ratioP2;P2;SDS_P1;SDS_P2;PMS_P1;PMS_P2;Temp;Humidity;BMP_temperature;BMP_pressure;BME280_temperature;BME280_humidity;BME280_pressure;Samples;Min_cycle;Max_cycle;Signal;HPM_P1;HPM_P2
2021/12/13 00:01:10;;;;;;;199.60;70.10;;;;;;;;;;6201292;28;20046;-60
2021/12/13 00:04:23;;;;;;;202.70;72.35;;;;;;;;;;6212410;28;20057;-61
2021/12/13 00:07:29;;;;;;;202.57;72.07;;;;;;;;;;6217747;28;20121;-61
2021/12/13 00:10:45;;;;;;;215.07;75.32;;;;;;;;;;6211674;28;20409;-61
2021/12/13 00:14:10;;;;;;;209.77;72.88;;;;;;;;;;6213947;28;20049;-61
2021/12/13 00:17:15;;;;;;;185.57;65.22;;;;;;;;;;6210804;28;20104;-60
2021/12/13 00:20:51;;;;;;;182.02;67.03;;;;;;;;;;6209554;28;20049;-60
2021/12/13 00:23:57;;;;;;;187.60;66.85;;;;;;;;;;6211578;28;20074;-60
2021/12/13 00:27:11;;;;;;;189.48;67.38;;;;;;;;;;6214738;28;20112;-60
2021/12/13 00:30:28;;;;;;;187.48;66.93;;;;;;;;;;6216648;28;20069;-60
2021/12/13 00:33:34;;;;;;;196.25;68.28;;;;;;;;;;6217044;28;20145;-60
2021/12/13 00:36:44;;;;;;;176.45;64.55;;;;;;;;;;6215726;28;20108;-60
2021/12/13 00:39:57;;;;;;;176.00;68.05;;;;;;;;;;6216107;28;20046;-60
2021/12/13 00:43:14;;;;;;;187.90;68.55;;;;;;;;;;6213882;28;20132;-59
2021/12/13 00:46:17;;;;;;;199.35;68.38;;;;;;;;;;6215060;28;20417;-60
2021/12/13 00:49:22;;;;;;;198.07;66.70;;;;;;;;;;6208171;28;20052;-59
2021/12/13 00:52:23;;;;;;;198.90;71.57;;;;;;;;;;6199008;28;20453;-59
2021/12/13 00:55:28;;;;;;;180.30;66.32;;;;;;;;;;6216670;28;20050;-60
2021/12/13 00:58:29;;;;;;;183.68;64.63;;;;;;;;;;6197016;28;20069;-61
2021/12/13 01:01:30;;;;;;;181.55;65.53;;;;;;;;;;6199641;28;20457;-60
2021/12/13 01:04:52;;;;;;;179.45;67.70;;;;;;;;;;6221037;28;20050;-60
2021/12/13 01:08:08;;;;;;;187.07;64.40;;;;;;;;;;6220635;28;20042;-59
2021/12/13 01:11:15;;;;;;;175.52;64.00;;;;;;;;;;6213465;28;20053;-60
2021/12/13 01:14:28;;;;;;;183.43;66.47;;;;;;;;;;6216650;28;20045;-61
2021/12/13 01:21:33;;;;;;;191.25;67.40;;;;;;;;;;6195923;28;20074;-59
2021/12/13 01:25:03;;;;;;;191.93;65.10;;;;;;;;;;6196582;28;20057;-60
2021/12/13 01:28:09;;;;;;;169.15;59.78;;;;;;;;;;6198235;28;20058;-60
2021/12/13 01:31:18;;;;;;;180.35;60.78;;;;;;;;;;6194384;28;20047;-59
2021/12/13 01:34:23;;;;;;;177.20;61.17;;;;;;;;;;6201617;28;20038;-59
2021/12/13 01:37:30;;;;;;;170.30;59.92;;;;;;;;;;6208381;28;20473;-60
2021/12/13 01:40:36;;;;;;;170.43;62.65;;;;;;;;;;6210470;28;20073;-59
2021/12/13 01:44:03;;;;;;;184.85;67.60;;;;;;;;;;6204234;28;20045;-61
2021/12/13 01:47:08;;;;;;;176.50;62.72;;;;;;;;;;6220050;28;20590;-60
2021/12/13 01:50:17;;;;;;;178.90;69.45;;;;;;;;;;6203251;28;20046;-60
2021/12/13 01:53:30;;;;;;;235.05;88.88;;;;;;;;;;6196169;28;20057;-60
2021/12/13 02:00:33;;;;;;;239.60;89.00;;;;;;;;;;6166991;28;20070;-61
2021/12/13 02:04:00;;;;;;;238.75;86.45;;;;;;;;;;6170894;28;20452;-60
2021/12/13 02:07:03;;;;;;;204.30;75.75;;;;;;;;;;6199097;28;20054;-60
2021/12/13 02:10:08;;;;;;;224.93;78.18;;;;;;;;;;6195263;28;20053;-60
2021/12/13 02:13:17;;;;;;;207.50;77.78;;;;;;;;;;6197158;28;20413;-60
2021/12/13 02:20:00;;;;;;;210.25;74.60;;;;;;;;;;6201037;28;20474;-60
2021/12/13 02:23:01;;;;;;;214.55;78.10;;;;;;;;;;6195587;28;20054;-61
2021/12/13 02:26:03;;;;;;;204.35;75.57;;;;;;;;;;6196479;28;20085;-60
2021/12/13 02:29:08;;;;;;;213.48;77.95;;;;;;;;;;6198359;28;20050;-60
2021/12/13 02:32:10;;;;;;;225.45;83.28;;;;;;;;;;6196603;28;20105;-61
2021/12/13 02:35:13;;;;;;;229.20;82.37;;;;;;;;;;6195767;28;20072;-61
2021/12/13 02:38:15;;;;;;;235.52;80.97;;;;;;;;;;6196265;28;20098;-59
2021/12/13 02:41:24;;;;;;;259.10;94.53;;;;;;;;;;6193490;28;20050;-60
2021/12/13 02:44:38;;;;;;;268.73;95.75;;;;;;;;;;6195670;28;20041;-60
2021/12/13 02:47:45;;;;;;;271.35;101.55;;;;;;;;;;6209946;28;20104;-60
2021/12/13 02:50:54;;;;;;;279.00;103.75;;;;;;;;;;6217948;28;20752;-61
2021/12/13 02:53:55;;;;;;;289.38;104.97;;;;;;;;;;6216144;28;20058;-61
2021/12/13 02:57:01;;;;;;;301.95;108.32;;;;;;;;;;6207897;28;20104;-59
2021/12/13 03:00:26;;;;;;;295.65;105.95;;;;;;;;;;6204852;28;20104;-61
2021/12/13 03:03:30;;;;;;;282.00;98.75;;;;;;;;;;6207321;28;20105;-60
2021/12/13 03:06:39;;;;;;;269.00;91.72;;;;;;;;;;6208165;28;20563;-58
2021/12/13 03:09:42;;;;;;;252.75;89.75;;;;;;;;;;6205241;28;20050;-61
2021/12/13 03:12:43;;;;;;;246.07;86.28;;;;;;;;;;6207404;28;20377;-60
2021/12/13 03:15:49;;;;;;;273.40;97.78;;;;;;;;;;6209107;28;20038;-60
2021/12/13 03:18:59;;;;;;;330.42;111.43;;;;;;;;;;6205061;28;20120;-61
2021/12/13 03:22:26;;;;;;;354.60;119.55;;;;;;;;;;6207889;28;20077;-60
2021/12/13 03:25:45;;;;;;;336.45;113.63;;;;;;;;;;6203202;28;20056;-60
2021/12/13 03:28:59;;;;;;;352.90;110.65;;;;;;;;;;6209741;28;20070;-60
2021/12/13 03:32:00;;;;;;;377.25;110.45;;;;;;;;;;6208957;28;20413;-61
2021/12/13 03:35:11;;;;;;;378.75;110.75;;;;;;;;;;6209151;28;20081;-61
2021/12/13 03:38:23;;;;;;;334.30;107.35;;;;;;;;;;6199694;28;20410;-61
2021/12/13 03:41:25;;;;;;;349.55;112.25;;;;;;;;;;6201226;28;20560;-61
2021/12/13 03:44:32;;;;;;;381.92;107.50;;;;;;;;;;6205794;28;20060;-60
2021/12/13 03:47:38;;;;;;;315.30;103.15;;;;;;;;;;6206967;28;20088;-61
2021/12/13 03:50:43;;;;;;;321.00;104.75;;;;;;;;;;6203597;28;20154;-60
2021/12/13 03:53:47;;;;;;;312.42;104.47;;;;;;;;;;6198460;28;20082;-60
2021/12/13 03:56:49;;;;;;;302.75;100.72;;;;;;;;;;6203961;28;20516;-61
2021/12/13 03:59:50;;;;;;;;;;;;;;;;;;6206453;28;20086;-61
2021/12/13 04:02:54;;;;;;;274.15;92.03;;;;;;;;;;6195252;28;20411;-60
2021/12/13 04:05:56;;;;;;;290.88;97.40;;;;;;;;;;6200962;28;20081;-60
2021/12/13 04:08:59;;;;;;;292.60;101.35;;;;;;;;;;6204683;28;20111;-60
2021/12/13 04:12:04;;;;;;;274.48;97.13;;;;;;;;;;6204451;28;20422;-60
2021/12/13 04:15:46;;;;;;;287.98;94.93;;;;;;;;;;6205855;28;20077;-60
2021/12/13 04:19:18;;;;;;;269.07;93.03;;;;;;;;;;6206916;28;20153;-61
2021/12/13 04:22:25;;;;;;;278.73;95.47;;;;;;;;;;6213332;28;20399;-60
2021/12/13 04:25:31;;;;;;;268.23;91.43;;;;;;;;;;6214206;28;20077;-60
2021/12/13 04:28:47;;;;;;;262.90;90.75;;;;;;;;;;6215496;28;20153;-59
2021/12/13 04:31:50;;;;;;;275.60;93.97;;;;;;;;;;6214379;28;20046;-60
2021/12/13 04:34:57;;;;;;;277.80;92.65;;;;;;;;;;6216212;28;20101;-60
2021/12/13 04:38:01;;;;;;;266.67;89.55;;;;;;;;;;6216461;28;20058;-60
2021/12/13 04:41:02;;;;;;;247.68;87.35;;;;;;;;;;6216342;28;20054;-60
2021/12/13 04:44:03;;;;;;;269.17;90.82;;;;;;;;;;6215971;28;20397;-61
2021/12/13 04:47:18;;;;;;;268.95;90.72;;;;;;;;;;6203597;28;20066;-59
2021/12/13 04:50:23;;;;;;;263.02;91.03;;;;;;;;;;6212560;28;20512;-60
2021/12/13 04:53:34;;;;;;;283.90;95.10;;;;;;;;;;6216934;28;20145;-59
2021/12/13 04:56:35;;;;;;;256.73;89.13;;;;;;;;;;6217297;28;20081;-60
2021/12/13 04:59:37;;;;;;;258.52;88.50;;;;;;;;;;6214073;28;20507;-60
2021/12/13 05:02:43;;;;;;;261.55;88.07;;;;;;;;;;6211270;28;20508;-60
2021/12/13 05:05:44;;;;;;;263.23;91.53;;;;;;;;;;6213717;28;20046;-60
2021/12/13 05:08:47;;;;;;;278.35;92.65;;;;;;;;;;6215092;28;20050;-60
2021/12/13 05:12:02;;;;;;;273.42;93.28;;;;;;;;;;6215040;28;20054;-60
2021/12/13 05:15:15;;;;;;;269.90;90.57;;;;;;;;;;6213265;28;20084;-60
2021/12/13 05:18:18;;;;;;;;;;;;;;;;;;6215107;28;20417;-60
2021/12/13 05:21:31;;;;;;;230.30;82.68;;;;;;;;;;6208331;28;20595;-59
2021/12/13 05:24:45;;;;;;;268.88;85.10;;;;;;;;;;6213961;28;20073;-59
2021/12/13 05:27:46;;;;;;;278.10;89.13;;;;;;;;;;6208924;28;20042;-58
2021/12/13 05:30:54;;;;;;;270.83;91.75;;;;;;;;;;6206610;28;20138;-59
2021/12/13 05:33:59;;;;;;;267.92;87.85;;;;;;;;;;6200724;28;20050;-59
2021/12/13 05:37:03;;;;;;;273.00;91.88;;;;;;;;;;6203372;28;20053;-59
2021/12/13 05:40:08;;;;;;;282.40;92.43;;;;;;;;;;6199742;28;20054;-62
2021/12/13 05:43:27;;;;;;;281.52;96.10;;;;;;;;;;6205121;28;20420;-60
2021/12/13 05:46:47;;;;;;;268.77;90.03;;;;;;;;;;6209443;28;20050;-60
2021/12/13 05:49:48;;;;;;;302.60;97.65;;;;;;;;;;6211091;28;20495;-59
2021/12/13 05:53:00;;;;;;;298.95;97.95;;;;;;;;;;6206449;28;20049;-59
2021/12/13 05:56:04;;;;;;;304.20;101.87;;;;;;;;;;6207826;28;20064;-59
2021/12/13 05:59:14;;;;;;;296.33;103.25;;;;;;;;;;6204030;28;20190;-60
2021/12/13 06:02:18;;;;;;;310.23;105.57;;;;;;;;;;6202303;28;20042;-60
2021/12/13 06:05:25;;;;;;;318.67;106.95;;;;;;;;;;6206740;28;20082;-62
2021/12/13 06:08:32;;;;;;;311.05;106.97;;;;;;;;;;6202600;28;22605;-62
2021/12/13 06:11:34;;;;;;;329.58;112.18;;;;;;;;;;6203247;28;20064;-61
2021/12/13 06:14:35;;;;;;;328.75;113.43;;;;;;;;;;6211921;28;20050;-60
2021/12/13 06:17:39;;;;;;;328.73;110.57;;;;;;;;;;6209935;28;20042;-59
2021/12/13 06:20:52;;;;;;;338.33;119.72;;;;;;;;;;6201385;28;20046;-58
2021/12/13 06:23:53;;;;;;;355.35;119.32;;;;;;;;;;6202238;28;20692;-59
2021/12/13 06:27:31;;;;;;;354.48;123.60;;;;;;;;;;6204956;28;20157;-60
2021/12/13 06:30:38;;;;;;;321.45;113.35;;;;;;;;;;6183041;28;20088;-62
2021/12/13 06:33:58;;;;;;;323.15;117.15;;;;;;;;;;6204614;28;20042;-61
2021/12/13 06:36:59;;;;;;;316.77;116.32;;;;;;;;;;6206398;28;20053;-61
2021/12/13 06:40:26;;;;;;;319.13;116.70;;;;;;;;;;6207527;28;20417;-61
2021/12/13 06:43:31;;;;;;;303.52;111.93;;;;;;;;;;6205600;28;20607;-61
2021/12/13 06:46:52;;;;;;;336.13;123.72;;;;;;;;;;6201830;28;20066;-61
2021/12/13 06:49:58;;;;;;;349.90;122.57;;;;;;;;;;6202019;28;20049;-61
2021/12/13 06:53:25;;;;;;;358.67;123.53;;;;;;;;;;6203601;28;20119;-61
2021/12/13 06:56:30;;;;;;;355.33;125.68;;;;;;;;;;6199286;28;20090;-61
2021/12/13 06:59:35;;;;;;;375.00;127.05;;;;;;;;;;6207910;28;20421;-61
2021/12/13 07:02:47;;;;;;;384.00;127.97;;;;;;;;;;6214785;28;20193;-61
2021/12/13 07:05:52;;;;;;;350.83;124.70;;;;;;;;;;6200085;28;20045;-61
2021/12/13 07:09:15;;;;;;;346.13;127.35;;;;;;;;;;6200819;28;20053;-62
2021/12/13 07:12:17;;;;;;;376.75;128.07;;;;;;;;;;6205138;28;20841;-61
2021/12/13 07:15:29;;;;;;;359.73;124.10;;;;;;;;;;6208393;28;20505;-61
2021/12/13 07:18:54;;;;;;;354.20;124.35;;;;;;;;;;6206527;28;20491;-61
2021/12/13 07:22:07;;;;;;;343.45;120.43;;;;;;;;;;6214234;28;20507;-61
2021/12/13 07:25:16;;;;;;;342.85;120.82;;;;;;;;;;6215463;28;20050;-61
2021/12/13 07:28:51;;;;;;;343.10;120.25;;;;;;;;;;6214955;28;20365;-61
2021/12/13 07:32:16;;;;;;;329.45;121.35;;;;;;;;;;6214803;28;20096;-62
2021/12/13 07:35:23;;;;;;;353.13;126.70;;;;;;;;;;6213832;28;20500;-62
2021/12/13 07:38:28;;;;;;;352.20;125.32;;;;;;;;;;6213166;28;20038;-61
2021/12/13 07:41:50;;;;;;;370.13;131.40;;;;;;;;;;6212886;28;20057;-61
2021/12/13 07:44:50;;;;;;;378.15;132.18;;;;;;;;;;6213261;28;20041;-61
2021/12/13 07:47:52;;;;;;;384.23;139.65;;;;;;;;;;6211241;28;20049;-61
2021/12/13 07:51:04;;;;;;;395.77;143.70;;;;;;;;;;6214624;28;20046;-61
2021/12/13 07:54:09;;;;;;;390.63;141.25;;;;;;;;;;6214365;28;20509;-61
2021/12/13 07:57:19;;;;;;;385.92;137.68;;;;;;;;;;6216482;28;20141;-62
2021/12/13 08:00:27;;;;;;;407.40;143.38;;;;;;;;;;6214912;28;20088;-62
2021/12/13 08:03:28;;;;;;;397.52;145.35;;;;;;;;;;6213004;28;20054;-61
2021/12/13 08:06:36;;;;;;;352.83;132.65;;;;;;;;;;6213500;28;20050;-62
2021/12/13 08:09:56;;;;;;;314.58;119.35;;;;;;;;;;6200232;28;20052;-61
2021/12/13 08:13:17;;;;;;;329.92;119.93;;;;;;;;;;6204665;28;20081;-59
2021/12/13 08:16:28;;;;;;;320.77;118.85;;;;;;;;;;6199246;28;20041;-62
2021/12/13 08:19:33;;;;;;;350.63;135.25;;;;;;;;;;6199175;28;20078;-61
2021/12/13 08:22:34;;;;;;;336.80;129.50;;;;;;;;;;6209472;28;20062;-60
2021/12/13 08:25:39;;;;;;;348.75;134.70;;;;;;;;;;6211721;28;20424;-60
2021/12/13 08:28:49;;;;;;;341.85;129.88;;;;;;;;;;6204022;28;20053;-60
2021/12/13 08:31:52;;;;;;;346.13;129.57;;;;;;;;;;6196913;28;20049;-62
2021/12/13 08:34:57;;;;;;;;;;;;;;;;;;6203744;28;20053;-62
2021/12/13 08:37:59;;;;;;;396.15;143.02;;;;;;;;;;6212338;28;19948;-60
2021/12/13 08:41:17;;;;;;;391.38;140.18;;;;;;;;;;6216493;28;20050;-61
2021/12/13 08:44:25;;;;;;;324.58;124.05;;;;;;;;;;6212422;28;20073;-61
2021/12/13 08:47:35;;;;;;;307.27;117.10;;;;;;;;;;6209156;28;20440;-59
2021/12/13 08:50:41;;;;;;;303.83;115.00;;;;;;;;;;6199554;28;20038;-59
2021/12/13 08:53:57;;;;;;;288.05;109.88;;;;;;;;;;6208936;28;20045;-62
2021/12/13 08:57:00;;;;;;;272.23;106.50;;;;;;;;;;6202852;28;20772;-61
2021/12/13 09:00:10;;;;;;;274.98;101.72;;;;;;;;;;6203057;28;20053;-61
2021/12/13 09:03:26;;;;;;;264.58;101.78;;;;;;;;;;6200876;28;20196;-60
2021/12/13 09:06:33;;;;;;;256.33;98.82;;;;;;;;;;6199478;28;20054;-61
2021/12/13 09:09:42;;;;;;;255.38;103.63;;;;;;;;;;6198048;28;20458;-60
2021/12/13 09:12:45;;;;;;;249.57;101.30;;;;;;;;;;6201704;28;20046;-60
2021/12/13 09:15:49;;;;;;;260.65;103.55;;;;;;;;;;6202850;28;20062;-60
2021/12/13 09:19:16;;;;;;;265.42;107.22;;;;;;;;;;6209420;28;20042;-61
2021/12/13 09:22:30;;;;;;;280.05;112.18;;;;;;;;;;6207234;28;20043;-61
2021/12/13 09:25:40;;;;;;;323.77;126.97;;;;;;;;;;6206098;28;20109;-60
2021/12/13 09:28:50;;;;;;;312.92;123.57;;;;;;;;;;6207282;28;20045;-60
2021/12/13 09:31:52;;;;;;;302.73;121.78;;;;;;;;;;6209013;28;20554;-60
2021/12/13 09:35:14;;;;;;;278.63;110.22;;;;;;;;;;6208579;28;20112;-60
2021/12/13 09:38:17;;;;;;;393.20;155.37;;;;;;;;;;6208160;28;20048;-60
2021/12/13 09:41:24;;;;;;;640.70;268.25;;;;;;;;;;6203813;28;20331;-60
2021/12/13 09:45:08;;;;;;;387.95;145.48;;;;;;;;;;6203800;28;20426;-60
2021/12/13 09:48:38;;;;;;;266.70;106.97;;;;;;;;;;6206072;28;20583;-60
2021/12/13 09:51:54;;;;;;;379.50;158.25;;;;;;;;;;6204465;28;20050;-60
2021/12/13 09:55:15;;;;;;;378.95;159.77;;;;;;;;;;6209040;28;20077;-60
2021/12/13 09:58:36;;;;;;;299.13;130.48;;;;;;;;;;6208193;28;20137;-62
2021/12/13 10:01:41;;;;;;;240.98;97.32;;;;;;;;;;6206202;28;20806;-61
2021/12/13 10:04:44;;;;;;;226.88;93.75;;;;;;;;;;6208250;28;20584;-62
2021/12/13 10:07:51;;;;;;;224.20;98.93;;;;;;;;;;6212790;28;20050;-61
2021/12/13 10:10:58;;;;;;;237.15;103.60;;;;;;;;;;6205858;28;20124;-60
2021/12/13 10:14:00;;;;;;;221.40;96.38;;;;;;;;;;6207247;28;20077;-60
2021/12/13 10:17:04;;;;;;;231.73;101.47;;;;;;;;;;6202050;28;20402;-63
2021/12/13 10:20:15;;;;;;;242.30;99.28;;;;;;;;;;6207358;28;20385;-61
2021/12/13 10:23:22;;;;;;;247.95;103.65;;;;;;;;;;6206976;28;20060;-62
2021/12/13 10:26:30;;;;;;;263.83;105.80;;;;;;;;;;6208200;28;20061;-61
2021/12/13 10:29:32;;;;;;;224.50;94.90;;;;;;;;;;6200357;28;20050;-60
2021/12/13 10:32:36;;;;;;;214.13;93.25;;;;;;;;;;6201895;28;20084;-61
2021/12/13 10:35:41;;;;;;;212.85;90.50;;;;;;;;;;6201598;28;20064;-61
2021/12/13 10:38:47;;;;;;;215.18;93.88;;;;;;;;;;6200574;28;20136;-59
2021/12/13 10:41:50;;;;;;;210.55;93.10;;;;;;;;;;6218620;28;20085;-61
2021/12/13 10:44:51;;;;;;;216.48;94.97;;;;;;;;;;6198973;28;20073;-59
2021/12/13 10:47:55;;;;;;;201.90;86.35;;;;;;;;;;6199501;28;20064;-59
2021/12/13 10:51:02;;;;;;;196.15;87.43;;;;;;;;;;6201528;28;20205;-61
2021/12/13 10:54:11;;;;;;;196.98;84.18;;;;;;;;;;6198612;28;20058;-61
2021/12/13 10:57:34;;;;;;;196.18;84.80;;;;;;;;;;6203109;28;20493;-60
2021/12/13 11:00:39;;;;;;;187.55;79.18;;;;;;;;;;6198485;28;20054;-60
2021/12/13 11:03:41;;;;;;;171.10;73.82;;;;;;;;;;6201336;28;20046;-59
2021/12/13 11:06:44;;;;;;;176.32;77.55;;;;;;;;;;6201309;28;20476;-60
2021/12/13 11:09:46;;;;;;;176.18;76.97;;;;;;;;;;6201204;28;20069;-60
2021/12/13 11:12:52;;;;;;;171.98;75.75;;;;;;;;;;6200594;28;20069;-59
2021/12/13 11:15:57;;;;;;;170.77;73.03;;;;;;;;;;6200381;28;20089;-60
2021/12/13 11:18:58;;;;;;;168.80;69.07;;;;;;;;;;6203381;28;20127;-59
2021/12/13 11:22:06;;;;;;;174.80;74.47;;;;;;;;;;6206153;28;20512;-58
2021/12/13 11:25:22;;;;;;;174.18;73.75;;;;;;;;;;6205391;28;20061;-60
2021/12/13 11:28:25;;;;;;;158.98;67.43;;;;;;;;;;6202952;28;20145;-60
2021/12/13 11:31:29;;;;;;;164.40;70.35;;;;;;;;;;6208228;28;20049;-60
2021/12/13 11:34:57;;;;;;;172.85;74.13;;;;;;;;;;6206317;28;20042;-60
2021/12/13 11:38:12;;;;;;;178.48;75.18;;;;;;;;;;6203168;28;20069;-61
2021/12/13 11:41:41;;;;;;;165.18;73.82;;;;;;;;;;6201331;28;20125;-60
2021/12/13 11:45:03;;;;;;;175.18;73.10;;;;;;;;;;6216209;28;20408;-60
2021/12/13 11:48:23;;;;;;;189.43;80.20;;;;;;;;;;6201135;28;20058;-60
2021/12/13 11:51:46;;;;;;;176.05;76.68;;;;;;;;;;6201968;28;20061;-60
2021/12/13 11:55:12;;;;;;;174.88;76.07;;;;;;;;;;6201778;28;20181;-60
2021/12/13 11:59:00;;;;;;;170.23;75.80;;;;;;;;;;6200330;28;20053;-60
2021/12/13 12:02:14;;;;;;;160.07;73.78;;;;;;;;;;6200124;28;20152;-60
2021/12/13 12:06:15;;;;;;;170.85;73.93;;;;;;;;;;6204025;28;20060;-60
2021/12/13 12:09:22;;;;;;;160.48;70.40;;;;;;;;;;6202861;28;20050;-60
2021/12/13 12:12:37;;;;;;;165.40;72.50;;;;;;;;;;6202478;28;20060;-60
2021/12/13 12:15:43;;;;;;;157.98;70.55;;;;;;;;;;6203910;28;20056;-60
2021/12/13 12:18:43;;;;;;;165.70;72.10;;;;;;;;;;6203119;28;20064;-60
2021/12/13 12:21:50;;;;;;;163.75;73.97;;;;;;;;;;6202413;28;20038;-60
2021/12/13 12:24:57;;;;;;;173.48;78.03;;;;;;;;;;6203440;28;20439;-60
2021/12/13 12:28:02;;;;;;;159.13;77.05;;;;;;;;;;6206126;28;20219;-60
2021/12/13 12:31:03;;;;;;;181.55;80.22;;;;;;;;;;6205891;28;20046;-60
2021/12/13 12:34:05;;;;;;;169.77;76.95;;;;;;;;;;6199632;28;21153;-61
2021/12/13 12:37:31;;;;;;;177.18;79.30;;;;;;;;;;6202225;28;20050;-60
2021/12/13 12:40:38;;;;;;;212.05;89.93;;;;;;;;;;6198771;28;20632;-60
2021/12/13 12:43:51;;;;;;;206.55;84.43;;;;;;;;;;6200413;28;20053;-60
2021/12/13 12:46:53;;;;;;;164.40;72.28;;;;;;;;;;6199580;28;20560;-60
2021/12/13 12:50:12;;;;;;;170.43;72.60;;;;;;;;;;6200458;28;20057;-60
2021/12/13 12:53:33;;;;;;;170.85;72.80;;;;;;;;;;6202196;28;20081;-60
2021/12/13 12:56:36;;;;;;;174.60;75.72;;;;;;;;;;6207482;28;20046;-60
2021/12/13 12:59:40;;;;;;;174.75;78.50;;;;;;;;;;6203088;28;20097;-62
2021/12/13 13:02:41;;;;;;;166.52;72.22;;;;;;;;;;6206154;28;20093;-62
2021/12/13 13:05:42;;;;;;;169.05;75.53;;;;;;;;;;6204173;28;20148;-60
2021/12/13 13:08:47;;;;;;;167.85;77.93;;;;;;;;;;6200553;28;20408;-60
2021/12/13 13:11:51;;;;;;;179.23;81.20;;;;;;;;;;6203802;28;20493;-60
2021/12/13 13:14:56;;;;;;;179.73;83.43;;;;;;;;;;6209167;28;20060;-62
2021/12/13 13:18:06;;;;;;;167.35;79.47;;;;;;;;;;6203604;28;20153;-59
2021/12/13 13:21:09;;;;;;;175.63;81.03;;;;;;;;;;6203515;28;20184;-62
2021/12/13 13:24:12;;;;;;;158.55;74.70;;;;;;;;;;6200945;28;20053;-59
2021/12/13 13:27:14;;;;;;;145.13;67.40;;;;;;;;;;6202842;28;20054;-60
2021/12/13 13:30:33;;;;;;;139.95;63.03;;;;;;;;;;6200960;28;20184;-60
2021/12/13 13:33:49;;;;;;;129.70;62.33;;;;;;;;;;6202411;28;20097;-60
2021/12/13 13:37:14;;;;;;;139.07;60.03;;;;;;;;;;6204055;28;20563;-61
2021/12/13 13:40:22;;;;;;;130.40;58.92;;;;;;;;;;6200732;28;20050;-61
2021/12/13 13:43:25;;;;;;;138.93;62.17;;;;;;;;;;6200430;28;20601;-60
2021/12/13 13:46:26;;;;;;;133.27;59.50;;;;;;;;;;6201366;28;20049;-60
2021/12/13 13:49:27;;;;;;;134.10;60.17;;;;;;;;;;6200790;28;20053;-60
2021/12/13 13:52:30;;;;;;;135.63;61.60;;;;;;;;;;6203304;28;20045;-60
2021/12/13 13:55:54;;;;;;;133.48;60.65;;;;;;;;;;6199929;28;20050;-60
2021/12/13 13:59:02;;;;;;;135.75;63.05;;;;;;;;;;6205182;28;20061;-59
2021/12/13 14:02:07;;;;;;;135.00;60.00;;;;;;;;;;6203565;28;20457;-60
2021/12/13 14:05:17;;;;;;;137.10;63.95;;;;;;;;;;6199146;28;20045;-60
2021/12/13 14:08:24;;;;;;;138.27;60.85;;;;;;;;;;6197970;28;20050;-62
2021/12/13 14:11:25;;;;;;;134.60;59.55;;;;;;;;;;6201765;28;20056;-60
2021/12/13 14:14:42;;;;;;;140.70;63.75;;;;;;;;;;6201855;28;20108;-60
2021/12/13 14:17:53;;;;;;;134.60;61.33;;;;;;;;;;6200948;28;20116;-60
2021/12/13 14:20:56;;;;;;;142.43;64.28;;;;;;;;;;6201932;28;20172;-61
2021/12/13 14:23:58;;;;;;;144.43;65.35;;;;;;;;;;6201989;28;20551;-61
2021/12/13 14:27:31;;;;;;;148.15;64.68;;;;;;;;;;6200191;28;20563;-60
2021/12/13 14:30:34;;;;;;;139.50;62.30;;;;;;;;;;6186652;28;20061;-60
2021/12/13 14:33:40;;;;;;;131.95;61.25;;;;;;;;;;6202475;28;20468;-60
2021/12/13 14:36:59;;;;;;;137.02;60.03;;;;;;;;;;6201331;28;20771;-60
2021/12/13 14:40:00;;;;;;;130.95;58.40;;;;;;;;;;6203802;28;20728;-61
2021/12/13 14:43:01;;;;;;;120.22;57.92;;;;;;;;;;6203741;28;20237;-61
2021/12/13 14:46:10;;;;;;;134.10;59.17;;;;;;;;;;6205019;28;20054;-61
2021/12/13 14:49:17;;;;;;;130.27;61.55;;;;;;;;;;6205086;28;20497;-61
2021/12/13 14:52:25;;;;;;;130.80;61.60;;;;;;;;;;6207935;28;20684;-61
2021/12/13 14:55:33;;;;;;;144.93;62.80;;;;;;;;;;6206592;28;20144;-61
2021/12/13 14:58:41;;;;;;;137.48;62.90;;;;;;;;;;6203881;28;20053;-61
2021/12/13 15:01:43;;;;;;;134.88;62.83;;;;;;;;;;6208530;28;20054;-61
2021/12/13 15:04:46;;;;;;;152.45;67.75;;;;;;;;;;6201805;28;20102;-60
2021/12/13 15:07:50;;;;;;;156.57;67.47;;;;;;;;;;6203898;28;20035;-61
2021/12/13 15:10:56;;;;;;;146.30;67.00;;;;;;;;;;6206588;28;20073;-60
2021/12/13 15:14:06;;;;;;;145.90;68.47;;;;;;;;;;6202163;28;20136;-61
2021/12/13 15:17:17;;;;;;;157.57;73.05;;;;;;;;;;6200513;28;21037;-60
2021/12/13 15:20:22;;;;;;;164.88;74.57;;;;;;;;;;6200626;28;20057;-61
2021/12/13 15:23:30;;;;;;;164.73;71.13;;;;;;;;;;6203060;28;20068;-61
2021/12/13 15:26:36;;;;;;;153.32;69.78;;;;;;;;;;6199377;28;20049;-61
2021/12/13 15:29:38;;;;;;;164.35;74.07;;;;;;;;;;6197663;28;20141;-61
2021/12/13 15:32:48;;;;;;;177.07;78.38;;;;;;;;;;6199541;28;20058;-61
2021/12/13 15:35:49;;;;;;;174.52;76.68;;;;;;;;;;6197555;28;20054;-60
2021/12/13 15:38:50;;;;;;;166.00;73.35;;;;;;;;;;6195850;28;20052;-60
2021/12/13 15:41:53;;;;;;;148.82;69.22;;;;;;;;;;6201912;28;20077;-61
2021/12/13 15:45:06;;;;;;;157.93;70.40;;;;;;;;;;6203550;28;20050;-61
2021/12/13 15:51:36;;;;;;;147.77;67.82;;;;;;;;;;6199952;28;20149;-61
2021/12/13 15:54:48;;;;;;;142.75;65.03;;;;;;;;;;6199981;28;20172;-62
2021/12/13 15:57:49;;;;;;;152.57;68.93;;;;;;;;;;6200297;28;20054;-61
2021/12/13 16:00:53;;;;;;;159.55;70.68;;;;;;;;;;6198307;28;20038;-61
2021/12/13 16:04:14;;;;;;;143.48;66.80;;;;;;;;;;6202190;28;20056;-60
2021/12/13 16:07:17;;;;;;;142.25;67.03;;;;;;;;;;6200694;28;20054;-60
2021/12/13 16:10:21;;;;;;;149.07;67.07;;;;;;;;;;6197059;28;20049;-61
2021/12/13 16:13:24;;;;;;;144.02;67.13;;;;;;;;;;6198533;28;20077;-60
2021/12/13 16:16:28;;;;;;;150.15;68.28;;;;;;;;;;6198812;28;20566;-61
2021/12/13 16:19:32;;;;;;;147.07;68.63;;;;;;;;;;6196643;28;20169;-61
2021/12/13 16:22:40;;;;;;;155.88;69.18;;;;;;;;;;6197956;28;20165;-61
2021/12/13 16:26:01;;;;;;;156.73;71.43;;;;;;;;;;6199129;28;20148;-60
2021/12/13 16:29:07;;;;;;;163.43;73.50;;;;;;;;;;6197213;28;20070;-60
2021/12/13 16:32:10;;;;;;;175.90;79.28;;;;;;;;;;6204158;28;20077;-61
2021/12/13 16:35:12;;;;;;;185.70;83.47;;;;;;;;;;6199612;28;20050;-61
2021/12/13 16:38:13;;;;;;;183.48;87.20;;;;;;;;;;6199798;28;20711;-60
2021/12/13 16:41:15;;;;;;;192.15;87.00;;;;;;;;;;6206557;28;20058;-60
2021/12/13 16:44:25;;;;;;;194.65;93.63;;;;;;;;;;6205209;28;20050;-61
2021/12/13 16:47:32;;;;;;;215.65;101.85;;;;;;;;;;6201605;28;20598;-61
2021/12/13 16:50:34;;;;;;;218.85;99.32;;;;;;;;;;6198938;28;20073;-60
2021/12/13 16:53:35;;;;;;;219.40;98.15;;;;;;;;;;6197188;28;20054;-60
2021/12/13 16:56:37;;;;;;;209.18;96.07;;;;;;;;;;6198341;28;20054;-60
2021/12/13 16:59:41;;;;;;;207.07;94.88;;;;;;;;;;6198615;28;20069;-60
2021/12/13 17:02:43;;;;;;;203.82;90.97;;;;;;;;;;6200276;28;20054;-61
2021/12/13 17:05:54;;;;;;;197.18;87.97;;;;;;;;;;6200839;28;20054;-61
2021/12/13 17:08:58;;;;;;;190.88;88.18;;;;;;;;;;6196754;28;20172;-61
2021/12/13 17:12:12;;;;;;;188.05;84.53;;;;;;;;;;6198990;28;20141;-61
2021/12/13 17:15:33;;;;;;;188.35;87.18;;;;;;;;;;6197597;28;20062;-60
2021/12/13 17:18:42;;;;;;;186.98;84.95;;;;;;;;;;6197745;28;20120;-60
2021/12/13 17:21:51;;;;;;;184.80;83.28;;;;;;;;;;6204455;28;20043;-61
2021/12/13 17:24:57;;;;;;;192.27;86.90;;;;;;;;;;6203771;28;20482;-61
2021/12/13 17:28:01;;;;;;;191.45;84.70;;;;;;;;;;6202665;28;21929;-60
2021/12/13 17:31:03;;;;;;;201.20;89.35;;;;;;;;;;6204981;28;20054;-60
2021/12/13 17:34:03;;;;;;;198.85;91.50;;;;;;;;;;6206267;28;20088;-61
2021/12/13 17:37:30;;;;;;;206.02;88.55;;;;;;;;;;6205820;28;20050;-61
2021/12/13 17:40:47;;;;;;;204.43;89.38;;;;;;;;;;6205776;28;20054;-60
2021/12/13 17:43:48;;;;;;;206.18;91.28;;;;;;;;;;6209776;28;20249;-61
2021/12/13 17:46:49;;;;;;;198.40;88.13;;;;;;;;;;6209907;28;20089;-60
2021/12/13 17:49:53;;;;;;;209.10;90.20;;;;;;;;;;6207624;28;20386;-61
2021/12/13 17:53:02;;;;;;;201.50;91.60;;;;;;;;;;6202411;28;20057;-61
2021/12/13 17:56:10;;;;;;;210.48;94.10;;;;;;;;;;6204401;28;20058;-60
2021/12/13 17:59:21;;;;;;;215.93;93.72;;;;;;;;;;6200153;28;20092;-61
2021/12/13 18:02:25;;;;;;;221.00;97.50;;;;;;;;;;6199782;28;20050;-61
2021/12/13 18:05:30;;;;;;;216.43;96.30;;;;;;;;;;6201895;28;20196;-61
2021/12/13 18:08:31;;;;;;;224.82;98.75;;;;;;;;;;6201680;28;20052;-61
2021/12/13 18:11:42;;;;;;;228.68;99.85;;;;;;;;;;6200795;28;21191;-61
2021/12/13 18:14:43;;;;;;;235.63;102.20;;;;;;;;;;6202084;28;20089;-60